Time;durP1;ratioP1;P1;durP2;ratioP2;P2;SDS_P1;SDS_P2;PMS_P1;PMS_P2;Temp;Humidity;BMP_temperature;BMP_pressure;BME280_temperature;BME280_humidity;BME280_pressure;Samples;Min_cycle;Max_cycle;Signal;HPM_P1;HPM_P2
2021/06/08 00:02:08;;;;;;;;;19.75;17.50;;;;;20.05;49.18;101804.28;5119051;27;45270;-51
2021/06/08 00:04:33;;;;;;;;;22.75;20.50;;;;;20.01;49.26;101799.94;5103195;27;45357;-51
2021/06/08 00:06:59;;;;;;;;;22.25;18.00;;;;;19.93;49.63;101786.91;5103370;27;45388;-50
2021/06/08 00:09:24;;;;;;;;;22.25;18.75;;;;;19.92;49.53;101798.53;5103613;27;45288;-50
2021/06/08 00:11:49;;;;;;;;;16.50;16.50;;;;;19.89;49.16;101787.09;5135606;27;45421;-49
2021/06/08 00:14:15;;;;;;;;;18.50;18.50;;;;;19.86;49.45;101787.19;5112049;27;45273;-47
2021/06/08 00:16:40;;;;;;;;;19.75;17.50;;;;;19.85;49.53;101782.78;5102822;27;45361;-53
2021/06/08 00:19:05;;;;;;;;;15.75;15.00;;;;;19.83;49.48;101774.84;5103496;27;45255;-50
2021/06/08 00:21:31;;;;;;;;;20.50;19.25;;;;;19.82;49.61;101778.41;5102930;27;45248;-49
2021/06/08 00:23:57;;;;;;;;;16.00;16.00;;;;;19.78;49.34;101768.78;5127172;27;46161;-48
2021/06/08 00:26:22;;;;;;;;;23.75;19.50;;;;;19.76;49.74;101768.84;5122156;27;45443;-48
2021/06/08 00:28:47;;;;;;;;;18.75;17.50;;;;;19.75;49.81;101766.22;5123783;27;45461;-49
2021/06/08 00:31:13;;;;;;;;;16.50;16.50;;;;;19.69;49.63;101755.78;5107593;27;45287;-46
2021/06/08 00:33:38;;;;;;;;;19.50;16.00;;;;;19.73;49.99;101776.06;5102868;27;46047;-49
2021/06/08 00:36:04;;;;;;;;;19.00;13.50;;;;;19.70;50.02;101777.06;5120246;27;45482;-49
2021/06/08 00:38:29;;;;;;;;;19.50;19.00;;;;;19.64;49.97;101778.13;5103202;27;45443;-50
2021/06/08 00:40:55;;;;;;;;;19.00;17.50;;;;;19.58;50.35;101766.81;5102851;27;45310;-47
2021/06/08 00:43:24;;;;;;;;;20.00;18.50;;;;;19.48;50.03;101761.84;5121191;27;46025;-44
2021/06/08 00:45:52;;;;;;;;;22.25;19.00;;;;;19.50;50.19;101764.44;5123606;27;45164;-50
2021/06/08 00:48:17;;;;;;;;;19.25;15.50;;;;;19.50;50.40;101764.44;5102938;27;45271;-48
2021/06/08 00:50:42;;;;;;;;;21.00;18.50;;;;;19.46;50.47;101769.00;5102552;27;45651;-49
2021/06/08 00:53:08;;;;;;;;;22.25;21.00;;;;;19.45;50.47;101767.25;5102479;27;45595;-50
2021/06/08 00:55:33;;;;;;;;;19.00;17.75;;;;;19.41;50.68;101775.44;5102593;27;45420;-48
2021/06/08 00:57:58;;;;;;;;;18.75;18.75;;;;;19.36;50.57;101777.38;5124077;27;45666;-44
2021/06/08 01:00:24;;;;;;;;;19.50;19.50;;;;;19.29;50.84;101785.56;5126024;27;45488;-50
2021/06/08 01:02:50;;;;;;;;;21.25;18.25;;;;;19.23;50.78;101779.59;5112163;27;45994;-46
2021/06/08 01:05:16;;;;;;;;;21.00;18.75;;;;;19.22;50.71;101783.16;5102290;27;45315;-49
2021/06/08 01:07:41;;;;;;;;;23.50;21.00;;;;;19.20;50.86;101782.38;5102641;27;45324;-46
2021/06/08 01:10:10;;;;;;;;;21.00;17.00;;;;;19.16;51.37;101777.13;5102267;27;45335;-45
2021/06/08 01:12:35;;;;;;;;;22.75;20.75;;;;;19.11;51.17;101771.09;5102254;27;46057;-50
2021/06/08 01:15:01;;;;;;;;;19.75;18.00;;;;;19.12;50.82;101769.31;5133800;27;45325;-48
2021/06/08 01:17:27;;;;;;;;;18.25;16.50;;;;;19.08;50.61;101765.88;5111960;27;45427;-48
2021/06/08 01:19:57;;;;;;;;;23.00;20.00;;;;;19.10;50.76;101777.34;5083578;27;45482;-47
2021/06/08 01:22:22;;;;;;;;;20.25;18.50;;;;;19.09;51.00;101775.59;5102106;27;45592;-47
2021/06/08 01:24:49;;;;;;;;;26.00;22.50;;;;;19.09;50.88;101775.59;5101919;27;45433;-47
2021/06/08 01:27:15;;;;;;;;;22.50;21.00;;;;;19.07;50.70;101768.56;5111893;27;45306;-48
2021/06/08 01:29:43;;;;;;;;;23.75;19.50;;;;;19.06;50.92;101769.53;5100997;27;45400;-46
2021/06/08 01:32:10;;;;;;;;;22.25;21.25;;;;;19.06;50.94;101773.03;5102050;27;46199;-49
2021/06/08 01:34:37;;;;;;;;;17.50;17.50;;;;;19.04;50.88;101764.22;5125195;27;45662;-48
2021/06/08 01:37:03;;;;;;;;;22.75;21.50;;;;;19.06;51.09;101770.38;5050273;27;45439;-47
2021/06/08 01:39:31;;;;;;;;;18.25;18.00;;;;;19.06;50.78;101769.53;5101850;27;45232;-45
2021/06/08 01:41:56;;;;;;;;;19.00;18.50;;;;;19.03;50.90;101769.59;5083289;27;45531;-50
2021/06/08 01:44:22;;;;;;;;;24.25;20.00;;;;;19.03;50.98;101765.16;5101748;27;45228;-49
2021/06/08 01:46:48;;;;;;;;;21.00;20.25;;;;;19.03;51.21;101767.84;5101905;27;45326;-48
2021/06/08 01:49:13;;;;;;;;;20.75;20.00;;;;;19.01;51.04;101764.34;5101775;27;45235;-49
2021/06/08 01:52:01;;;;;;;;;24.00;21.50;;;;;19.02;51.09;101768.75;5083041;27;48490;-46
2021/06/08 01:54:42;;;;;;;;;25.50;22.75;;;;;19.01;51.32;101761.69;5109813;27;45399;-45
2021/06/08 01:57:29;;;;;;;;;24.75;23.75;;;;;19.00;51.43;101765.25;5104345;27;45271;-50
2021/06/08 02:00:04;;;;;;;;;17.25;15.50;;;;;18.98;51.48;101764.44;5105844;27;45253;-50
2021/06/08 02:02:51;;;;;;;;;23.50;21.25;;;;;18.97;51.02;101770.69;5109182;27;46488;-50
2021/06/08 02:05:47;;;;;;;;;24.25;23.00;;;;;18.94;51.62;101778.78;5111652;27;45334;-48
2021/06/08 02:08:40;;;;;;;;;24.25;23.75;;;;;18.89;51.57;101788.69;5126193;27;45319;-49
2021/06/08 02:11:09;;;;;;;;;20.75;20.00;;;;;18.84;51.55;101786.16;5101465;27;45333;-45
2021/06/08 02:14:00;;;;;;;;;26.75;23.00;;;;;18.80;51.46;101784.50;5115826;27;48276;-48
2021/06/08 02:16:34;;;;;;;;;23.00;19.25;;;;;18.76;51.84;101794.38;5105417;27;45287;-48
2021/06/08 02:18:59;;;;;;;;;25.75;23.00;;;;;18.76;52.01;101802.38;5065978;27;45476;-50
2021/06/08 02:21:33;;;;;;;;;26.00;24.50;;;;;18.74;51.80;101800.69;5100846;27;45481;-50
2021/06/08 02:24:02;;;;;;;;;24.25;21.75;;;;;18.72;51.88;101798.06;5082926;27;45461;-49
2021/06/08 02:26:30;;;;;;;;;23.50;21.00;;;;;18.65;51.86;101792.09;5103941;27;45221;-50
2021/06/08 02:28:58;;;;;;;;;27.25;26.25;;;;;18.68;51.99;101796.44;5113324;27;45370;-50
2021/06/08 02:31:25;;;;;;;;;25.00;22.25;;;;;18.68;52.15;101799.09;5121171;27;45470;-50
2021/06/08 02:33:51;;;;;;;;;21.25;18.50;;;;;18.66;52.01;101800.94;5101895;27;45498;-45
2021/06/08 02:36:17;;;;;;;;;26.25;24.00;;;;;18.65;52.03;101802.72;5117178;27;45377;-47
2021/06/08 02:38:46;;;;;;;;;23.75;21.75;;;;;18.63;52.00;101795.72;5101121;27;45349;-47
2021/06/08 02:41:11;;;;;;;;;29.25;25.50;;;;;18.62;52.10;101797.50;5082422;27;45480;-47
2021/06/08 02:43:38;;;;;;;;;26.50;22.50;;;;;18.58;52.13;101800.28;5100645;27;45410;-46
2021/06/08 02:46:05;;;;;;;;;27.00;23.50;;;;;18.59;52.21;101802.03;5100887;27;45401;-45
2021/06/08 02:48:32;;;;;;;;;29.50;28.00;;;;;18.56;52.08;101805.66;5101033;27;45314;-46
2021/06/08 02:50:58;;;;;;;;;26.00;23.75;;;;;18.55;52.29;101803.91;5100680;27;45484;-44
2021/06/08 02:53:26;;;;;;;;;23.75;22.50;;;;;18.52;52.51;101804.03;5100629;27;46372;-47
2021/06/08 02:55:52;;;;;;;;;26.50;24.00;;;;;18.50;52.39;101804.06;5100803;27;45172;-46
2021/06/08 02:58:19;;;;;;;;;28.25;27.50;;;;;18.48;52.49;101811.22;5100719;27;45345;-48
2021/06/08 03:00:45;;;;;;;;;28.00;25.50;;;;;18.47;52.75;101798.84;5110369;27;45520;-44
2021/06/08 03:03:16;;;;;;;;;26.75;26.50;;;;;18.45;52.62;101803.34;5121145;27;46153;-48
2021/06/08 03:05:53;;;;;;;;;31.00;25.75;;;;;18.42;52.73;101813.22;5120838;27;45289;-47
2021/06/08 03:08:24;;;;;;;;;25.50;24.75;;;;;18.41;52.69;101819.44;5119365;27;45401;-45
2021/06/08 03:10:52;;;;;;;;;28.50;24.25;;;;;18.39;52.75;101816.84;5100555;27;45180;-47
2021/06/08 03:13:19;;;;;;;;;26.50;22.00;;;;;18.35;52.92;101818.72;5116825;27;45284;-45
2021/06/08 03:15:49;;;;;;;;;30.00;29.25;;;;;18.33;53.16;101817.88;5086015;27;45356;-44
2021/06/08 03:18:17;;;;;;;;;25.50;22.25;;;;;18.31;53.14;101816.19;5098984;27;45478;-46
2021/06/08 03:20:56;;;;;;;;;26.50;23.75;;;;;18.29;53.21;101812.72;5100229;27;45464;-48
2021/06/08 03:23:25;;;;;;;;;29.00;24.50;;;;;18.25;53.04;101808.38;5099082;27;46032;-49
2021/06/08 03:25:52;;;;;;;;;30.75;26.00;;;;;18.27;53.35;101819.84;5100392;27;45285;-44
2021/06/08 03:28:21;;;;;;;;;22.50;21.75;;;;;18.26;53.57;101818.97;5100160;27;45395;-46
2021/06/08 03:30:48;;;;;;;;;24.50;24.50;;;;;18.22;53.59;101814.66;5088082;27;45301;-47
2021/06/08 03:33:14;;;;;;;;;29.00;22.50;;;;;18.25;53.40;101819.03;5079643;27;46329;-45
2021/06/08 03:35:40;;;;;;;;;27.25;25.25;;;;;18.25;53.35;101824.34;5095918;27;45348;-47
2021/06/08 03:38:06;;;;;;;;;29.50;24.75;;;;;18.24;53.42;101823.47;5080736;27;45260;-49
2021/06/08 03:40:32;;;;;;;;;26.50;23.25;;;;;18.21;53.63;101817.38;5078805;28;45258;-49
2021/06/08 03:42:57;;;;;;;;;26.00;22.50;;;;;18.18;53.47;101811.22;5091451;27;46227;-48
2021/06/08 03:45:23;;;;;;;;;20.00;18.25;;;;;18.23;53.54;101816.41;5106436;27;45499;-46
2021/06/08 03:47:49;;;;;;;;;27.00;25.50;;;;;18.22;53.87;101824.44;5079240;27;45378;-49
2021/06/08 03:50:15;;;;;;;;;28.00;26.50;;;;;18.23;53.75;101826.19;5078092;27;45315;-46
2021/06/08 03:52:43;;;;;;;;;26.50;25.00;;;;;18.23;53.84;101824.41;5079411;27;46238;-48
2021/06/08 03:55:10;;;;;;;;;32.75;27.25;;;;;18.24;53.96;101827.91;5079504;27;45245;-46
2021/06/08 03:57:43;;;;;;;;;34.75;31.75;;;;;18.20;53.68;101835.13;5085191;27;45276;-44
2021/06/08 04:00:10;;;;;;;;;27.00;24.75;;;;;18.22;53.93;101832.44;5090992;27;45357;-44
2021/06/08 04:02:38;;;;;;;;;30.00;25.50;;;;;18.21;53.88;101831.53;5091654;27;45156;-44
2021/06/08 04:05:06;;;;;;;;;29.50;26.75;;;;;18.18;53.67;101826.31;5079246;27;45608;-47
2021/06/08 04:07:31;;;;;;;;;26.25;25.25;;;;;18.19;53.79;101828.06;5079518;27;45338;-44
2021/06/08 04:09:57;;;;;;;;;23.00;22.50;;;;;18.17;54.08;101832.53;5079343;28;45316;-44
2021/06/08 04:12:23;;;;;;;;;32.25;29.50;;;;;18.13;54.02;101823.78;5079331;28;46314;-44
2021/06/08 04:14:49;;;;;;;;;29.00;24.25;;;;;18.17;54.23;101830.75;5079154;28;45376;-44
2021/06/08 04:17:15;;;;;;;;;26.50;26.50;;;;;18.19;54.22;101839.56;5085081;27;45350;-44
2021/06/08 04:19:42;;;;;;;;;26.50;26.25;;;;;18.23;54.18;101834.19;5100951;27;45239;-44
2021/06/08 04:22:08;;;;;;;;;30.00;27.25;;;;;18.23;54.08;101832.38;5103274;27;45495;-45
2021/06/08 04:24:33;;;;;;;;;29.25;26.50;;;;;18.25;53.90;101833.22;5102875;27;45272;-46
2021/06/08 04:27:00;;;;;;;;;27.25;26.25;;;;;18.28;54.08;101837.56;5110629;27;45365;-45
2021/06/08 04:29:26;;;;;;;;;30.50;26.50;;;;;18.28;53.94;101841.09;5091736;27;45448;-44
2021/06/08 04:31:52;;;;;;;;;28.25;26.50;;;;;18.26;53.65;101832.28;5116103;27;46410;-47
2021/06/08 04:34:22;;;;;;;;;30.50;25.75;;;;;18.31;53.90;101832.16;5089310;27;45264;-47
2021/06/08 04:36:49;;;;;;;;;27.75;27.25;;;;;18.34;53.83;101840.06;5115236;27;45287;-49
2021/06/08 04:39:15;;;;;;;;;25.75;24.00;;;;;18.28;54.03;101841.09;5102934;27;45317;-47
2021/06/08 04:41:40;;;;;;;;;29.00;27.50;;;;;18.30;53.85;101838.38;5102882;27;45333;-47
2021/06/08 04:44:07;;;;;;;;;33.75;27.75;;;;;18.29;53.90;101839.31;5102725;27;45396;-46
2021/06/08 04:46:38;;;;;;;;;31.00;28.50;;;;;18.32;53.73;101847.19;5102994;27;45251;-48
2021/06/08 04:49:03;;;;;;;;;34.75;32.75;;;;;18.32;53.99;101836.56;5102630;27;45396;-44
2021/06/08 04:51:28;;;;;;;;;32.25;28.75;;;;;18.33;54.01;101841.81;5102459;27;46549;-47
2021/06/08 04:53:54;;;;;;;;;35.00;30.00;;;;;18.33;53.94;101840.97;5102417;27;45336;-48
2021/06/08 04:56:19;;;;;;;;;28.50;26.50;;;;;18.34;53.94;101843.56;5102826;27;45303;-46
2021/06/08 04:58:45;;;;;;;;;29.75;28.50;;;;;18.37;54.28;101844.41;5102427;27;45311;-50
2021/06/08 05:01:39;;;;;;;;;34.25;29.25;;;;;18.40;54.03;101845.19;5115951;27;46389;-49
2021/06/08 05:04:14;;;;;;;;;40.50;34.00;;;;;18.41;53.77;101851.38;5123252;27;45379;-48
2021/06/08 05:06:52;;;;;;;;;25.25;23.25;;;;;18.43;53.88;101849.56;5122934;27;45394;-47
2021/06/08 05:09:20;;;;;;;;;28.00;27.50;;;;;18.43;53.73;101850.41;5123321;27;45532;-49
2021/06/08 05:11:55;;;;;;;;;31.75;27.50;;;;;18.46;53.89;101849.44;5104086;27;46088;-46
2021/06/08 05:14:24;;;;;;;;;29.50;28.50;;;;;18.48;53.78;101847.63;5123010;27;45301;-49
2021/06/08 05:16:51;;;;;;;;;28.25;26.00;;;;;18.52;53.63;101850.13;5122577;27;45414;-41
2021/06/08 05:19:18;;;;;;;;;35.00;29.75;;;;;18.57;53.67;101846.47;5122822;27;45365;-47
2021/06/08 05:21:45;;;;;;;;;31.00;27.50;;;;;18.60;53.61;101844.59;5122503;27;46367;-50
2021/06/08 05:24:12;;;;;;;;;29.75;29.75;;;;;18.65;53.72;101850.66;5122876;27;45351;-45
2021/06/08 05:26:40;;;;;;;;;34.50;30.00;;;;;18.67;53.64;101848.78;5122624;27;45248;-48
2021/06/08 05:29:06;;;;;;;;;31.00;27.00;;;;;18.71;53.45;101854.03;5122767;27;46480;-49
2021/06/08 05:31:32;;;;;;;;;28.25;27.25;;;;;18.75;53.21;101853.03;5102704;27;46057;-47
2021/06/08 05:33:58;;;;;;;;;31.50;27.50;;;;;18.77;53.19;101844.06;5085590;27;45352;-47
2021/06/08 05:36:32;;;;;;;;;34.50;29.75;;;;;18.86;53.22;101847.38;5117279;27;45362;-46
2021/06/08 05:38:58;;;;;;;;;31.25;29.00;;;;;18.89;53.23;101845.44;5102077;27;45263;-49
2021/06/08 05:41:23;;;;;;;;;33.25;29.75;;;;;18.94;52.98;101842.69;5101879;27;46147;-47
2021/06/08 05:43:48;;;;;;;;;31.50;28.25;;;;;18.96;52.77;101848.84;5101662;27;45319;-46
2021/06/08 05:46:14;;;;;;;;;29.25;28.50;;;;;19.00;52.64;101847.81;5134096;27;45222;-44
2021/06/08 05:48:40;;;;;;;;;29.25;27.50;;;;;19.03;52.77;101845.06;5104084;27;45478;-47
2021/06/08 05:51:07;;;;;;;;;36.25;28.50;;;;;19.07;52.64;101852.03;5101997;27;45362;-48
2021/06/08 05:53:38;;;;;;;;;29.25;24.50;;;;;19.12;52.38;101859.91;5101874;27;45572;-50
2021/06/08 05:56:04;;;;;;;;;35.75;31.50;;;;;19.13;52.42;101859.84;5109063;27;45239;-46
2021/06/08 05:58:30;;;;;;;;;32.50;31.00;;;;;19.14;52.31;101858.03;5122106;27;45258;-46
2021/06/08 06:00:59;;;;;;;;;36.00;32.50;;;;;19.17;52.62;101863.28;5122025;27;45587;-49
2021/06/08 06:03:26;;;;;;;;;34.25;30.50;;;;;19.20;52.50;101851.66;5118038;27;45338;-48
2021/06/08 06:05:52;;;;;;;;;33.25;30.00;;;;;19.23;52.49;101855.09;5122025;27;45560;-49
2021/06/08 06:08:18;;;;;;;;;27.00;26.75;;;;;19.28;52.41;101857.56;5103623;27;45505;-49
2021/06/08 06:10:45;;;;;;;;;30.00;29.25;;;;;19.30;52.30;101858.41;5122103;27;45205;-51
2021/06/08 06:13:14;;;;;;;;;29.75;28.50;;;;;19.32;52.44;101851.25;5121950;27;45177;-49
2021/06/08 06:15:40;;;;;;;;;34.50;27.50;;;;;19.33;52.18;101851.19;5122188;27;45444;-50
2021/06/08 06:18:07;;;;;;;;;35.25;29.75;;;;;19.36;52.12;101847.53;5121826;27;45479;-47
2021/06/08 06:20:33;;;;;;;;;31.50;29.00;;;;;19.37;51.90;101854.63;5121908;27;45361;-47
2021/06/08 06:22:58;;;;;;;;;34.50;30.25;;;;;19.40;52.34;101845.66;5121956;27;45359;-46
2021/06/08 06:25:25;;;;;;;;;30.00;28.75;;;;;19.46;51.97;101850.78;5122324;27;45236;-50
2021/06/08 06:27:50;;;;;;;;;34.00;32.25;;;;;19.49;52.03;101854.19;5121561;27;45231;-47
2021/06/08 06:30:16;;;;;;;;;32.75;30.75;;;;;19.48;52.02;101855.13;5104640;27;46274;-48
2021/06/08 06:32:44;;;;;;;;;34.25;28.50;;;;;19.48;52.22;101854.25;5101250;27;45184;-50
2021/06/08 06:35:10;;;;;;;;;26.25;26.25;;;;;19.51;52.27;101853.25;5110585;27;45354;-49
2021/06/08 06:37:38;;;;;;;;;29.50;28.25;;;;;19.58;52.25;101857.47;5106403;27;45366;-46
2021/06/08 06:40:08;;;;;;;;;35.75;32.75;;;;;19.63;51.74;101861.75;5120419;27;46217;-50
2021/06/08 06:42:41;;;;;;;;;36.00;31.50;;;;;19.69;51.71;101854.44;5121008;27;45480;-47
2021/06/08 06:45:08;;;;;;;;;32.25;30.75;;;;;19.73;51.84;101859.59;5121588;27;45220;-47
2021/06/08 06:47:36;;;;;;;;;35.75;31.00;;;;;19.81;51.69;101860.22;5121701;27;45333;-47
2021/06/08 06:50:07;;;;;;;;;36.50;32.75;;;;;19.88;51.92;101862.69;5121188;27;45386;-47
2021/06/08 06:52:33;;;;;;;;;42.25;34.75;;;;;19.89;51.51;101856.44;5103684;27;45335;-47
2021/06/08 06:54:59;;;;;;;;;34.50;29.75;;;;;19.98;51.92;101866.78;5103190;27;45350;-46
2021/06/08 06:57:24;;;;;;;;;35.75;32.00;;;;;20.02;51.29;101870.19;5085876;27;45291;-45
2021/06/08 06:59:50;;;;;;;;;35.00;31.50;;;;;20.07;51.52;101865.56;5121234;27;46944;-45
2021/06/08 07:02:18;;;;;;;;;38.25;33.75;;;;;20.07;51.09;101871.75;5121408;27;45302;-45
2021/06/08 07:04:46;;;;;;;;;37.00;33.25;;;;;20.12;51.37;101859.16;5121112;27;45268;-46
2021/06/08 07:07:18;;;;;;;;;36.50;33.50;;;;;20.18;50.88;101873.19;5121386;27;45514;-49
2021/06/08 07:09:44;;;;;;;;;33.75;32.50;;;;;20.18;51.12;101862.50;5102693;27;46236;-45
2021/06/08 07:12:11;;;;;;;;;33.75;30.75;;;;;20.26;51.02;101863.97;5102568;27;45481;-45
2021/06/08 07:14:40;;;;;;;;;37.25;33.75;;;;;20.33;50.51;101863.75;5121477;27;45457;-47
2021/06/08 07:17:06;;;;;;;;;32.00;30.50;;;;;20.35;50.27;101868.09;5121117;27;45314;-49
2021/06/08 07:19:32;;;;;;;;;38.75;33.00;;;;;20.35;50.56;101862.75;5120956;27;46428;-50
2021/06/08 07:21:58;;;;;;;;;35.25;31.50;;;;;20.39;50.67;101861.72;5102473;27;45520;-48
2021/06/08 07:24:25;;;;;;;;;34.50;31.50;;;;;20.43;50.30;101857.97;5121228;27;45257;-47
2021/06/08 07:26:51;;;;;;;;;39.75;33.50;;;;;20.54;50.73;101865.59;5119801;27;45208;-48
2021/06/08 07:29:17;;;;;;;;;29.50;27.00;;;;;20.63;49.91;101853.69;5115345;27;47037;-48
2021/06/08 07:32:05;;;;;;;;;32.00;29.75;;;;;20.68;50.15;101861.50;5100419;27;45222;-47
2021/06/08 07:34:34;;;;;;;;;32.00;29.75;;;;;20.73;50.02;101855.09;5100250;27;45391;-50
2021/06/08 07:37:02;;;;;;;;;33.00;30.50;;;;;20.78;50.37;101852.25;5100304;27;45186;-50
2021/06/08 07:40:07;;;;;;;;;34.25;33.25;;;;;20.90;50.01;101861.56;5082033;27;46274;-46
2021/06/08 07:42:42;;;;;;;;;32.25;31.25;;;;;21.00;50.06;101856.72;5066878;27;45304;-46
2021/06/08 07:45:10;;;;;;;;;36.00;31.00;;;;;21.10;49.79;101864.28;5120883;27;45443;-49
2021/06/08 07:47:36;;;;;;;;;35.50;31.75;;;;;21.19;49.65;101860.38;5120973;27;45426;-52
2021/06/08 07:50:06;;;;;;;;;29.00;27.50;;;;;21.13;49.05;101836.59;5120356;27;46346;-51
2021/06/08 07:52:33;;;;;;;;;36.50;30.25;;;;;21.35;48.80;101857.94;5120793;27;45253;-49
2021/06/08 07:54:59;;;;;;;;;34.75;30.00;;;;;21.41;49.05;101855.00;5087247;27;45474;-51
2021/06/08 07:57:25;;;;;;;;;35.00;32.50;;;;;21.46;49.06;101865.53;5124264;27;45485;-48
2021/06/08 07:59:51;;;;;;;;;35.50;31.25;;;;;21.52;48.90;101849.22;5105649;27;47285;-48
2021/06/08 08:02:20;;;;;;;;;33.00;31.00;;;;;21.61;48.77;101847.09;5124367;27;45379;-47
2021/06/08 08:04:51;;;;;;;;;28.50;27.50;;;;;21.69;48.73;101853.84;5123917;27;45253;-51
2021/06/08 08:07:22;;;;;;;;;33.75;30.75;;;;;21.77;48.53;101852.66;5124228;27;46384;-51
2021/06/08 08:09:48;;;;;;;;;36.50;31.00;;;;;21.80;47.77;101844.47;5123916;27;46430;-48
2021/06/08 08:12:14;;;;;;;;;28.25;26.25;;;;;21.92;48.30;101843.94;5123972;27;45337;-49
2021/06/08 08:14:43;;;;;;;;;33.00;31.25;;;;;22.01;47.92;101848.00;5123789;27;45318;-49
2021/06/08 08:17:11;;;;;;;;;32.75;30.00;;;;;22.05;47.80;101836.25;5123916;27;45263;-50
2021/06/08 08:19:38;;;;;;;;;32.00;27.75;;;;;22.14;47.75;101840.28;5105184;27;46185;-48
2021/06/08 08:22:04;;;;;;;;;34.50;31.00;;;;;22.18;47.25;101841.91;5124081;27;45545;-47
2021/06/08 08:24:29;;;;;;;;;30.75;27.50;;;;;22.20;46.39;101840.00;5123981;27;45373;-48
2021/06/08 08:26:54;;;;;;;;;33.00;29.25;;;;;22.23;46.75;101845.25;5123545;27;45541;-46
2021/06/08 08:29:20;;;;;;;;;34.75;32.00;;;;;22.29;46.94;101838.72;5104595;27;46058;-50
2021/06/08 08:31:45;;;;;;;;;36.75;32.00;;;;;22.38;47.06;101841.03;5123805;27;45357;-49
2021/06/08 08:34:11;;;;;;;;;34.50;31.25;;;;;22.44;46.75;101838.06;5104981;27;45406;-48
2021/06/08 08:36:38;;;;;;;;;78.33;67.67;;;;;22.54;47.13;101838.47;5123759;27;45375;-48
2021/06/08 08:39:06;;;;;;;;;35.25;31.75;;;;;22.59;46.60;101833.78;5123477;27;45255;-51
2021/06/08 08:41:32;;;;;;;;;398.00;369.50;;;;;22.65;45.82;101830.78;5123527;27;45421;-49
2021/06/08 08:43:58;;;;;;;;;42.50;32.00;;;;;22.75;45.77;101836.56;5087754;27;45265;-46
2021/06/08 08:46:23;;;;;;;;;39.50;36.25;;;;;22.84;46.10;101833.47;5105058;27;45515;-51
2021/06/08 08:48:53;;;;;;;;;40.00;34.00;;;;;22.93;45.09;101832.16;5104888;27;46158;-48
2021/06/08 08:51:20;;;;;;;;;50.25;40.25;;;;;23.00;45.10;101836.25;5123242;27;45282;-47
2021/06/08 08:53:46;;;;;;;;;46.75;39.75;;;;;23.06;45.39;101835.09;5123588;27;45157;-45
2021/06/08 08:56:15;;;;;;;;;32.50;30.50;;;;;23.14;44.53;101837.38;5123353;27;45215;-49
2021/06/08 08:58:41;;;;;;;;;32.50;30.50;;;;;23.17;44.90;101834.59;5123137;27;47045;-47
2021/06/08 09:01:06;;;;;;;;;36.25;33.00;;;;;23.21;44.24;101839.69;5123115;27;45345;-46
2021/06/08 09:03:32;;;;;;;;;39.00;32.25;;;;;23.29;44.11;101828.59;5104834;27;45286;-48
2021/06/08 09:05:59;;;;;;;;;34.75;32.00;;;;;23.31;43.95;101833.91;5122720;27;45342;-52
2021/06/08 09:08:26;;;;;;;;;35.00;31.00;;;;;23.36;43.75;101824.66;5123159;27;46510;-48
2021/06/08 09:10:53;;;;;;;;;31.25;29.75;;;;;23.41;44.03;101824.44;5123031;27;45266;-47
2021/06/08 09:13:20;;;;;;;;;37.50;30.00;;;;;23.48;43.98;101825.84;5122937;27;45302;-50
2021/06/08 09:15:47;;;;;;;;;27.00;27.00;;;;;23.57;43.74;101819.16;5123233;27;45494;-49
2021/06/08 09:18:12;;;;;;;;;34.25;29.75;;;;;23.68;43.46;101816.75;5122921;27;45317;-48
2021/06/08 09:20:38;;;;;;;;;31.75;29.75;;;;;23.78;43.64;101817.13;5122559;27;45332;-49
2021/06/08 09:23:06;;;;;;;;;28.50;27.75;;;;;23.82;43.16;101815.16;5123183;27;45282;-46
2021/06/08 09:25:38;;;;;;;;;31.25;27.00;;;;;23.88;43.12;101812.13;5104249;27;45224;-48
2021/06/08 09:28:12;;;;;;;;;28.25;28.00;;;;;24.00;43.34;101811.50;5121920;27;47001;-48
2021/06/08 09:30:38;;;;;;;;;25.50;24.00;;;;;24.10;43.07;101801.16;5104247;27;45501;-47
2021/06/08 09:33:25;;;;;;;;;26.50;25.75;;;;;24.24;42.55;101808.44;5122748;27;45168;-50
2021/06/08 09:35:58;;;;;;;;;28.25;24.25;;;;;24.38;43.00;101807.66;5103956;27;45617;-50
2021/06/08 09:38:38;;;;;;;;;30.00;26.50;;;;;24.49;42.29;101815.13;5122633;27;46359;-51
2021/06/08 09:41:23;;;;;;;;;23.75;22.75;;;;;24.59;41.72;101808.28;5122636;27;45219;-50
2021/06/08 09:43:56;;;;;;;;;22.75;20.50;;;;;24.66;41.54;101808.81;5122314;27;45337;-50
2021/06/08 09:46:24;;;;;;;;;24.50;23.50;;;;;24.72;40.95;101807.63;5104052;27;45496;-50
2021/06/08 09:49:02;;;;;;;;;24.75;22.75;;;;;24.79;41.11;101808.97;5122469;27;45333;-49
2021/06/08 09:51:45;;;;;;;;;27.50;24.75;;;;;24.90;40.18;101811.91;5122253;27;45267;-45
2021/06/08 09:54:33;;;;;;;;;23.50;22.50;;;;;25.01;40.69;101808.59;5103680;27;45335;-50
2021/06/08 09:57:29;;;;;;;;;23.50;22.00;;;;;25.22;40.36;101808.28;5122174;27;45531;-49
2021/06/08 10:00:06;;;;;;;;;21.50;20.50;;;;;25.46;40.18;101803.31;5115218;27;45398;-48
2021/06/08 10:02:41;;;;;;;;;23.75;20.25;;;;;25.72;39.26;101800.84;5122192;27;45277;-46
2021/06/08 10:05:22;;;;;;;;;20.75;20.25;;;;;25.92;38.91;101805.88;5121937;27;45241;-48
2021/06/08 10:07:52;;;;;;;;;18.00;18.00;;;;;26.08;38.03;101805.78;5122103;27;45550;-47
2021/06/08 10:10:21;;;;;;;;;18.75;18.75;;;;;26.22;37.97;101796.81;5122172;27;47043;-46
2021/06/08 10:13:11;;;;;;;;;19.75;19.25;;;;;26.38;38.12;101796.69;5121955;27;45445;-49
2021/06/08 10:16:04;;;;;;;;;20.00;16.75;;;;;26.55;37.51;101802.81;5122124;27;45260;-51
2021/06/08 10:18:44;;;;;;;;;15.25;15.00;;;;;26.76;36.41;101795.19;5121200;27;45155;-48
2021/06/08 10:21:10;;;;;;;;;20.25;19.50;;;;;26.96;36.73;101801.09;5121355;27;46089;-49
2021/06/08 10:23:36;;;;;;;;;22.00;19.00;;;;;27.14;36.44;101794.41;5103349;27;45322;-46
2021/06/08 10:26:07;;;;;;;;;19.75;17.75;;;;;27.35;35.95;101799.34;5121906;27;45318;-47
2021/06/08 10:28:33;;;;;;;;;22.00;20.00;;;;;27.50;36.15;101800.16;5121596;27;45337;-47
2021/06/08 10:31:00;;;;;;;;;17.75;15.25;;;;;27.61;34.90;101785.88;5101545;27;45581;-46
2021/06/08 10:33:26;;;;;;;;;18.50;15.50;;;;;27.78;34.68;101793.66;5101225;27;45388;-48
2021/06/08 10:35:53;;;;;;;;;20.00;18.00;;;;;27.98;34.63;101785.97;5100725;27;45370;-50
2021/06/08 10:38:20;;;;;;;;;19.00;17.50;;;;;28.56;34.20;101788.97;5101086;27;45177;-49
2021/06/08 10:40:50;;;;;;;;;19.00;18.25;;;;;32.13;31.93;101779.97;5100917;27;46527;-51
2021/06/08 10:43:22;;;;;;;;;20.75;18.25;;;;;34.35;28.54;101788.19;5100534;27;45410;-46
2021/06/08 10:45:50;;;;;;;;;22.25;19.50;;;;;33.57;26.99;101783.91;5099923;27;45255;-48
2021/06/08 10:48:45;;;;;;;;;19.00;18.00;;;;;34.25;27.40;101790.09;5100811;27;45358;-46
2021/06/08 10:51:13;;;;;;;;;20.00;20.00;;;;;36.90;25.94;101791.63;5098613;27;45474;-45
2021/06/08 10:53:41;;;;;;;;;19.00;18.00;;;;;40.77;23.39;101795.22;5100680;27;45326;-47
2021/06/08 10:56:31;;;;;;;;;17.50;17.50;;;;;45.64;19.85;101798.06;5100809;27;45231;-48
2021/06/08 10:59:03;;;;;;;;;19.25;18.50;;;;;49.51;16.76;101788.91;5099442;27;45596;-49
2021/06/08 11:01:31;;;;;;;;;14.00;14.00;;;;;52.50;13.96;101796.56;5100590;27;46328;-47
2021/06/08 11:04:07;;;;;;;;;16.00;15.00;;;;;54.93;12.16;101786.91;5100356;27;45297;-48
2021/06/08 11:06:49;;;;;;;;;15.75;15.75;;;;;56.90;8.92;101785.63;5100607;27;46259;-50
2021/06/08 11:09:17;;;;;;;;;17.75;17.00;;;;;57.61;8.43;101785.28;5082100;27;45274;-48
2021/06/08 11:11:54;;;;;;;;;18.00;18.00;;;;;57.50;8.10;101781.03;5100321;27;46232;-53
2021/06/08 11:17:02;;;;;;;;;12.25;12.25;;;;;56.03;8.76;101780.38;5100578;27;45424;-52
2021/06/08 11:19:40;;;;;;;;;15.50;15.50;;;;;51.82;9.36;101769.56;5100403;27;45297;-49
2021/06/08 11:22:05;;;;;;;;;14.75;14.75;;;;;48.19;11.29;101751.13;5100381;27;46305;-48